Time;durP1;ratioP1;P1;durP2;ratioP2;P2;SDS_P1;SDS_P2;PMS_P1;PMS_P2;Temp;Humidity;BMP_temperature;BMP_pressure;BME280_temperature;BME280_humidity;BME280_pressure;Samples;Min_cycle;Max_cycle;Signal;HPM_P1;HPM_P2
2023/07/27 00:01:32;;;;;;;8.90;3.50;;;;;;;28.77;45.03;97824.75;5014953;28;20182;-85
2023/07/27 00:03:57;;;;;;;10.43;4.22;;;;;;;28.67;45.70;97827.16;5015418;28;20191;-86
2023/07/27 00:06:23;;;;;;;9.88;4.18;;;;;;;28.72;45.20;97824.59;5032697;28;20228;-86
2023/07/27 00:08:48;;;;;;;10.27;4.22;;;;;;;28.54;45.76;97825.41;5014779;28;20186;-86
2023/07/27 00:11:15;;;;;;;7.63;4.03;;;;;;;28.48;46.09;97832.53;5032960;28;20178;-86
2023/07/27 00:13:41;;;;;;;8.90;4.35;;;;;;;28.43;45.94;97832.38;5032878;28;20182;-86
2023/07/27 00:16:07;;;;;;;7.65;4.45;;;;;;;28.30;46.74;97843.31;5015207;28;20198;-85
2023/07/27 00:18:32;;;;;;;7.72;4.60;;;;;;;28.24;46.61;97846.09;5032511;28;20182;-85
2023/07/27 00:20:57;;;;;;;10.75;4.65;;;;;;;28.43;46.30;97845.84;5033743;28;20209;-86
2023/07/27 00:23:23;;;;;;;8.40;4.65;;;;;;;28.38;46.46;97848.41;5035989;28;20182;-86
2023/07/27 00:25:49;;;;;;;7.80;4.22;;;;;;;28.46;46.89;97850.78;5035908;28;20189;-86
2023/07/27 00:28:16;;;;;;;12.85;4.70;;;;;;;28.60;46.43;97840.69;5019882;28;20236;-86
2023/07/27 00:30:41;;;;;;;11.68;4.40;;;;;;;28.36;46.92;97838.88;5018500;28;20186;-86
2023/07/27 00:33:09;;;;;;;9.85;4.82;;;;;;;28.28;47.14;97840.00;5018901;28;20523;-86
2023/07/27 00:35:34;;;;;;;8.27;4.85;;;;;;;28.16;47.84;97844.50;5035838;28;20206;-86
2023/07/27 00:38:00;;;;;;;12.80;5.20;;;;;;;28.06;48.41;97849.59;5018577;28;20244;-86
2023/07/27 00:40:25;;;;;;;10.95;4.75;;;;;;;28.18;47.45;97839.72;5018052;28;20190;-86
2023/07/27 00:42:52;;;;;;;9.63;5.32;;;;;;;28.13;47.08;97847.66;5018501;28;20592;-85
2023/07/27 00:45:17;;;;;;;9.45;4.95;;;;;;;28.14;47.51;97857.41;5035793;28;20189;-85
2023/07/27 00:47:44;;;;;;;8.50;5.05;;;;;;;28.23;46.88;97852.50;5036104;28;20174;-86
2023/07/27 00:50:09;;;;;;;10.20;5.35;;;;;;;28.15;46.58;97845.53;5035803;28;20636;-86
2023/07/27 00:52:36;;;;;;;7.80;4.40;;;;;;;28.07;47.03;97845.84;5035383;28;20197;-86
2023/07/27 00:55:01;;;;;;;7.70;4.30;;;;;;;27.94;47.44;97843.25;5035373;28;20692;-85
2023/07/27 00:57:28;;;;;;;8.15;4.78;;;;;;;27.81;47.17;97846.06;5035709;28;20231;-85
2023/07/27 00:59:53;;;;;;;10.32;5.03;;;;;;;27.82;47.21;97851.25;5035564;28;20228;-86
2023/07/27 01:02:20;;;;;;;8.55;4.18;;;;;;;27.76;47.31;97851.28;5035354;28;20269;-85
2023/07/27 01:04:46;;;;;;;8.68;4.82;;;;;;;27.60;47.36;97849.13;5035803;28;20616;-85
2023/07/27 01:07:11;;;;;;;10.38;5.13;;;;;;;27.52;47.75;97860.19;5035456;28;20269;-86
2023/07/27 01:09:36;;;;;;;10.02;5.03;;;;;;;27.54;47.51;97855.41;5035728;28;20654;-86
2023/07/27 01:12:25;;;;;;;11.82;6.07;;;;;;;27.59;47.18;97858.28;5035330;28;20179;-86
2023/07/27 01:15:25;;;;;;;10.88;5.57;;;;;;;27.48;47.25;97864.34;5035400;28;20608;-86
2023/07/27 01:18:03;;;;;;;10.77;4.95;;;;;;;27.51;47.46;97858.53;5016090;28;20213;-86
2023/07/27 01:20:46;;;;;;;10.68;5.00;;;;;;;27.35;47.99;97851.78;5035544;28;20596;-85
2023/07/27 01:23:49;;;;;;;8.30;5.20;;;;;;;27.30;48.06;97859.69;5035080;28;20608;-85
2023/07/27 01:26:42;;;;;;;8.98;5.05;;;;;;;27.33;48.17;97865.44;5035027;28;20170;-86
2023/07/27 01:29:35;;;;;;;9.20;5.23;;;;;;;27.34;47.78;97852.81;5035293;28;20167;-84
2023/07/27 01:32:04;;;;;;;11.60;5.93;;;;;;;27.17;48.25;97852.53;5034766;28;20648;-84
2023/07/27 01:34:33;;;;;;;15.05;5.82;;;;;;;27.36;47.34;97854.25;5035239;28;20186;-85
2023/07/27 01:37:01;;;;;;;7.70;4.93;;;;;;;27.38;46.85;97860.25;5017210;28;20325;-85
2023/07/27 01:39:30;;;;;;;9.20;4.70;;;;;;;27.27;47.31;97860.13;5017437;28;20179;-85
2023/07/27 01:41:59;;;;;;;8.75;4.45;;;;;;;27.08;47.32;97861.91;5034783;28;20178;-85
2023/07/27 01:44:28;;;;;;;14.20;5.32;;;;;;;27.09;47.17;97868.09;5035012;28;20179;-85
2023/07/27 01:46:55;;;;;;;8.33;4.70;;;;;;;27.09;47.14;97862.72;5034262;28;20182;-84
2023/07/27 01:49:23;;;;;;;9.30;4.32;;;;;;;27.11;47.00;97866.03;5034932;28;20174;-85
2023/07/27 01:51:50;;;;;;;13.43;4.75;;;;;;;27.27;46.19;97871.72;5034356;28;20257;-85
2023/07/27 01:54:16;;;;;;;8.18;4.07;;;;;;;27.32;46.33;97868.38;5034587;28;20647;-85
2023/07/27 01:56:45;;;;;;;6.60;3.93;;;;;;;27.05;46.93;97872.25;5034361;28;20202;-85
2023/07/27 01:59:11;;;;;;;10.10;4.40;;;;;;;27.15;46.71;97875.31;5034665;28;20174;-85
2023/07/27 02:01:38;;;;;;;8.35;4.72;;;;;;;27.15;46.61;97878.81;5016614;28;20222;-85
2023/07/27 02:04:05;;;;;;;9.73;4.45;;;;;;;27.11;46.89;97885.69;5034081;28;20204;-85
2023/07/27 02:06:31;;;;;;;8.05;4.32;;;;;;;27.09;47.05;97881.56;5034345;28;20638;-85
2023/07/27 02:08:56;;;;;;;8.07;3.67;;;;;;;27.11;47.04;97887.53;5016800;28;20272;-86
2023/07/27 02:11:24;;;;;;;9.07;3.90;;;;;;;27.06;47.07;97887.38;5017139;28;20269;-84
2023/07/27 02:14:01;;;;;;;7.28;3.90;;;;;;;26.97;47.51;97885.94;5016715;28;20670;-85
2023/07/27 02:16:41;;;;;;;8.67;4.23;;;;;;;26.87;48.00;97886.41;5033863;28;20601;-84
2023/07/27 02:19:10;;;;;;;7.70;4.38;;;;;;;27.11;47.19;97888.38;5034155;28;20615;-85
2023/07/27 02:21:37;;;;;;;7.37;3.77;;;;;;;27.09;46.96;97890.47;5033936;28;20881;-85
2023/07/27 02:24:05;;;;;;;6.43;3.67;;;;;;;27.23;46.74;97892.00;5033699;28;20261;-85
2023/07/27 02:26:32;;;;;;;7.72;3.83;;;;;;;27.37;46.29;97903.53;5034012;28;20261;-85
2023/07/27 02:28:57;;;;;;;8.15;4.10;;;;;;;27.42;46.17;97901.88;5016546;28;20182;-86
2023/07/27 02:31:24;;;;;;;7.80;4.27;;;;;;;27.50;46.34;97908.84;5033923;28;20251;-85
2023/07/27 02:33:50;;;;;;;8.97;4.00;;;;;;;27.53;45.95;97902.22;5033818;28;20182;-85
2023/07/27 02:36:15;;;;;;;9.60;3.57;;;;;;;27.37;46.30;97908.91;5016101;28;20198;-85
2023/07/27 02:38:41;;;;;;;6.43;3.83;;;;;;;27.41;46.15;97912.88;5016312;28;20194;-85
2023/07/27 02:41:10;;;;;;;7.65;3.80;;;;;;;27.52;46.09;97917.53;5016194;28;20182;-85
2023/07/27 02:43:35;;;;;;;8.77;4.70;;;;;;;27.47;45.91;97927.28;5015559;28;20201;-84
2023/07/27 02:46:01;;;;;;;6.47;4.07;;;;;;;27.48;45.96;97928.97;5016340;28;20178;-84
2023/07/27 02:48:27;;;;;;;7.60;3.50;;;;;;;27.20;46.14;97922.03;5033115;28;20206;-85
2023/07/27 02:50:52;;;;;;;6.60;3.70;;;;;;;27.15;46.40;97919.16;5033622;28;20192;-85
2023/07/27 02:53:19;;;;;;;8.67;3.90;;;;;;;27.24;46.26;97917.06;5016233;28;20189;-85
2023/07/27 02:56:15;;;;;;;7.00;4.20;;;;;;;27.02;46.71;97924.63;5016075;28;20198;-85
2023/07/27 02:58:40;;;;;;;10.50;4.33;;;;;;;26.89;47.12;97927.34;4999903;28;20284;-85
2023/07/27 03:01:07;;;;;;;5.87;3.73;;;;;;;26.94;46.78;97930.22;5033350;28;20659;-85
2023/07/27 03:03:32;;;;;;;7.47;4.07;;;;;;;26.80;47.02;97934.03;5015670;28;20186;-85
2023/07/27 03:05:59;;;;;;;7.07;3.80;;;;;;;26.82;46.88;97931.94;5033922;28;20185;-86
2023/07/27 03:08:29;;;;;;;8.00;4.23;;;;;;;26.54;47.73;97939.44;5015713;28;20205;-86
2023/07/27 03:11:05;;;;;;;10.43;3.33;;;;;;;26.56;47.63;97932.84;5033275;28;20182;-86
2023/07/27 03:13:32;;;;;;;9.77;4.50;;;;;;;26.67;47.30;97945.63;5015908;28;20585;-86
2023/07/27 03:16:02;;;;;;;6.63;3.37;;;;;;;26.48;47.93;97942.97;5033190;28;20226;-85
2023/07/27 03:18:28;;;;;;;7.80;3.73;;;;;;;26.53;47.73;97949.38;5015513;28;20635;-85
2023/07/27 03:20:53;;;;;;;8.67;3.90;;;;;;;26.60;47.58;97950.19;5033231;28;20206;-85
2023/07/27 03:23:20;;;;;;;9.05;3.67;;;;;;;26.61;47.49;97956.38;5033026;28;20188;-85
2023/07/27 03:25:45;;;;;;;7.70;3.40;;;;;;;26.44;47.76;97966.75;5033410;28;20189;-84
2023/07/27 03:28:11;;;;;;;6.40;3.60;;;;;;;26.28;48.00;97986.00;5015562;28;20178;-84
2023/07/27 03:30:38;;;;;;;9.23;3.43;;;;;;;26.28;48.10;97982.50;5032600;28;20244;-85
2023/07/27 03:33:06;;;;;;;5.63;3.13;;;;;;;26.23;48.20;97983.91;5033667;28;20265;-85
2023/07/27 03:35:32;;;;;;;8.97;3.80;;;;;;;26.32;48.06;97983.72;5032722;28;20208;-85
2023/07/27 03:37:57;;;;;;;6.57;3.17;;;;;;;26.26;48.41;97980.00;5033023;28;20625;-85
2023/07/27 03:40:23;;;;;;;7.10;3.57;;;;;;;26.18;48.49;97988.25;5033049;28;20212;-86
2023/07/27 03:42:49;;;;;;;9.67;4.17;;;;;;;26.10;48.39;97991.94;5015553;28;20628;-84
2023/07/27 03:45:16;;;;;;;5.77;3.27;;;;;;;26.03;48.91;97987.63;5015400;28;20240;-85
2023/07/27 03:47:43;;;;;;;7.43;3.43;;;;;;;26.35;48.12;97989.50;5032879;28;20257;-85
2023/07/27 03:50:10;;;;;;;10.63;4.07;;;;;;;26.26;48.50;97989.94;5032353;28;20182;-84
2023/07/27 03:52:36;;;;;;;7.60;3.83;;;;;;;26.38;48.36;97994.47;5023260;28;20248;-85
2023/07/27 03:55:02;;;;;;;6.93;3.60;;;;;;;26.19;48.99;98000.66;5034410;28;20552;-84
2023/07/27 03:57:27;;;;;;;6.17;3.80;;;;;;;26.21;48.84;98004.81;5017103;28;20182;-85
2023/07/27 03:59:57;;;;;;;6.03;3.20;;;;;;;26.32;48.82;98011.41;5017214;28;20186;-85
2023/07/27 04:02:24;;;;;;;6.67;3.07;;;;;;;26.16;49.23;98007.28;5033642;28;20186;-83
2023/07/27 04:04:49;;;;;;;7.17;3.60;;;;;;;26.24;49.16;98014.31;5034625;28;20209;-84
2023/07/27 04:07:15;;;;;;;8.70;3.83;;;;;;;26.30;48.91;98015.34;5035553;28;20620;-84
2023/07/27 04:09:40;;;;;;;8.43;3.37;;;;;;;26.21;49.13;98018.22;5035985;28;20647;-85
2023/07/27 04:12:06;;;;;;;6.37;3.57;;;;;;;26.26;49.34;98014.91;5017611;28;20194;-85
2023/07/27 04:14:32;;;;;;;10.53;3.97;;;;;;;26.27;49.30;98026.50;5035971;28;20185;-84
2023/07/27 04:16:57;;;;;;;9.50;3.97;;;;;;;26.15;49.58;98032.47;5036202;28;20206;-85
2023/07/27 04:19:24;;;;;;;8.73;3.40;;;;;;;25.74;51.40;98034.47;5032863;28;20174;-84
2023/07/27 04:21:49;;;;;;;10.07;4.10;;;;;;;25.80;51.19;98032.81;5017892;28;20276;-85
2023/07/27 04:25:19;;;;;;;;;;;;;;;;;;;;;
2023/07/27 04:31:06;;;;;;;6.97;3.30;;;;;;;25.82;51.07;98054.91;4979086;28;20249;-86
2023/07/27 04:33:31;;;;;;;8.53;3.83;;;;;;;25.86;50.95;98046.28;5034460;28;20154;-87
2023/07/27 04:35:59;;;;;;;6.93;3.60;;;;;;;25.90;50.61;98050.19;5018270;28;20541;-88
2023/07/27 04:38:25;;;;;;;8.80;3.47;;;;;;;25.74;51.01;98061.31;5035797;28;20186;-86
2023/07/27 04:40:51;;;;;;;6.60;3.83;;;;;;;25.75;50.66;98060.28;5036053;28;20247;-86
2023/07/27 04:43:17;;;;;;;6.17;3.37;;;;;;;25.94;50.01;98075.59;5036511;28;20202;-88
2023/07/27 04:45:42;;;;;;;7.23;3.30;;;;;;;25.95;49.50;98082.63;5035238;28;20324;-88
2023/07/27 04:48:08;;;;;;;7.00;4.10;;;;;;;25.80;49.74;98065.88;5035266;28;20251;-87
2023/07/27 04:50:34;;;;;;;7.70;3.30;;;;;;;25.89;49.44;98059.25;5044333;28;20193;-87
2023/07/27 04:52:59;;;;;;;11.87;4.07;;;;;;;26.10;48.91;98056.41;5035790;28;20182;-87
2023/07/27 04:55:25;;;;;;;8.43;3.53;;;;;;;26.02;48.63;98058.50;5035705;28;20733;-87
2023/07/27 04:57:50;;;;;;;5.53;3.50;;;;;;;25.91;48.81;98070.66;5009990;28;20195;-87
2023/07/27 05:00:15;;;;;;;7.00;2.77;;;;;;;25.90;48.50;98066.31;5011874;28;20577;-87
2023/07/27 05:02:41;;;;;;;5.63;3.20;;;;;;;25.94;48.45;98072.09;5018106;28;20194;-86
2023/07/27 05:05:07;;;;;;;5.83;2.73;;;;;;;25.86;47.62;98070.44;5035133;28;20240;-87
2023/07/27 05:07:32;;;;;;;4.83;2.53;;;;;;;25.66;47.64;98091.00;5017447;28;20265;-88
2023/07/27 05:09:57;;;;;;;5.00;2.73;;;;;;;25.57;47.57;98092.22;5035010;28;20712;-87
2023/07/27 05:12:23;;;;;;;4.90;2.60;;;;;;;25.69;47.19;98087.09;5017675;28;20193;-86
2023/07/27 05:14:48;;;;;;;5.67;2.60;;;;;;;25.46;46.78;98079.38;5035820;28;20190;-87
2023/07/27 05:17:14;;;;;;;7.10;2.23;;;;;;;25.28;47.21;98071.84;5035624;28;20186;-87
2023/07/27 05:19:39;;;;;;;4.13;2.10;;;;;;;25.27;47.44;98090.81;5034336;28;20185;-86
2023/07/27 05:22:05;;;;;;;5.33;1.97;;;;;;;25.13;47.42;98089.09;5034751;28;20265;-88
2023/07/27 05:24:30;;;;;;;4.20;1.97;;;;;;;25.09;48.15;98103.91;5033894;28;20269;-85
2023/07/27 05:26:55;;;;;;;5.67;2.87;;;;;;;25.34;47.32;98118.50;5034884;28;20285;-87
2023/07/27 05:32:51;;;;;;;3.53;1.70;;;;;;;24.96;48.05;98094.78;4925918;29;20301;-86
2023/07/27 05:35:17;;;;;;;4.17;1.97;;;;;;;24.98;47.83;98103.44;5035139;28;20218;-86
2023/07/27 05:37:46;;;;;;;3.20;2.00;;;;;;;24.93;48.03;98100.53;5017497;28;20620;-86
2023/07/27 05:40:13;;;;;;;3.67;2.00;;;;;;;25.08;48.44;98124.53;5034840;28;20198;-87
2023/07/27 05:42:38;;;;;;;3.40;1.93;;;;;;;25.01;48.40;98135.22;5017412;28;20193;-86
2023/07/27 05:45:05;;;;;;;3.80;1.80;;;;;;;24.80;49.14;98159.41;5034792;28;20178;-86
2023/07/27 05:47:30;;;;;;;4.60;1.87;;;;;;;24.76;nan;98159.97;5035055;28;20624;-87
2023/07/27 05:49:57;;;;;;;4.37;2.03;;;;;;;24.65;49.13;98144.41;5017042;28;20186;-87
2023/07/27 05:52:23;;;;;;;4.03;2.40;;;;;;;24.59;49.30;98137.97;5034715;28;20625;-87
2023/07/27 05:54:48;;;;;;;3.63;2.23;;;;;;;24.53;49.50;98127.19;5034632;28;20261;-85
2023/07/27 05:57:13;;;;;;;5.50;2.37;;;;;;;24.44;50.22;98134.53;5017089;28;20233;-86
2023/07/27 05:59:39;;;;;;;9.30;3.10;;;;;;;24.50;49.82;98119.53;5016993;28;20206;-86
2023/07/27 06:02:05;;;;;;;3.17;2.10;;;;;;;24.72;49.03;98129.19;5034639;28;20189;-86
2023/07/27 06:04:31;;;;;;;4.37;2.37;;;;;;;24.78;48.85;98136.47;5016969;28;20609;-86
2023/07/27 06:06:57;;;;;;;4.70;1.80;;;;;;;24.92;48.45;98133.72;5017030;28;20247;-85
2023/07/27 06:09:23;;;;;;;6.30;2.20;;;;;;;24.75;48.70;98135.00;5034398;28;20174;-85
2023/07/27 06:11:48;;;;;;;4.00;2.40;;;;;;;24.59;49.81;98139.81;5034600;28;20516;-85
2023/07/27 06:14:14;;;;;;;4.87;2.50;;;;;;;24.78;49.44;98133.78;5034300;28;20178;-86
2023/07/27 06:16:39;;;;;;;8.60;3.27;;;;;;;24.68;48.74;98144.84;5034154;28;20669;-85
2023/07/27 06:19:05;;;;;;;4.43;2.47;;;;;;;24.51;49.93;98148.81;5033069;28;20189;-87
2023/07/27 06:21:30;;;;;;;6.23;2.80;;;;;;;24.60;49.45;98146.84;5034130;28;20690;-85
2023/07/27 06:23:56;;;;;;;5.80;2.73;;;;;;;24.89;48.54;98136.81;5034082;28;20276;-86
2023/07/27 06:26:21;;;;;;;3.93;2.50;;;;;;;25.00;48.21;98144.28;5033921;28;20182;-86
2023/07/27 06:28:46;;;;;;;5.63;2.50;;;;;;;25.00;47.84;98152.31;5033878;28;20651;-87
2023/07/27 06:31:12;;;;;;;5.60;3.00;;;;;;;25.13;46.98;98148.91;5016612;28;20373;-86
2023/07/27 06:33:37;;;;;;;7.30;2.87;;;;;;;24.92;47.47;98163.19;5016540;28;20178;-87
2023/07/27 06:36:04;;;;;;;4.10;3.03;;;;;;;24.78;47.45;98150.72;5016432;28;20640;-87
2023/07/27 06:38:29;;;;;;;4.20;2.40;;;;;;;24.71;47.00;98151.69;5034110;28;20176;-85
2023/07/27 06:40:55;;;;;;;6.40;2.40;;;;;;;24.61;47.65;98154.66;5032095;28;20182;-85
2023/07/27 06:43:20;;;;;;;3.57;2.00;;;;;;;24.86;47.26;98161.31;5033193;28;20682;-85
2023/07/27 06:45:46;;;;;;;7.10;2.60;;;;;;;24.72;47.47;98161.34;5033465;28;20185;-85
2023/07/27 06:48:11;;;;;;;6.77;3.13;;;;;;;24.36;48.20;98156.09;5033613;28;20582;-86
2023/07/27 06:50:37;;;;;;;6.87;2.80;;;;;;;24.47;48.69;98126.13;5033468;28;20257;-86
2023/07/27 06:53:02;;;;;;;4.17;2.77;;;;;;;24.58;49.49;98120.22;5019086;28;20620;-86
2023/07/27 06:55:28;;;;;;;5.90;2.90;;;;;;;24.59;50.66;98135.28;5013541;28;20298;-86
2023/07/27 06:57:55;;;;;;;4.40;2.57;;;;;;;24.71;51.40;98144.44;5013780;28;20179;-86
2023/07/27 07:00:21;;;;;;;6.60;3.17;;;;;;;24.37;53.06;98147.84;5013323;28;20648;-86
2023/07/27 07:02:47;;;;;;;12.83;3.63;;;;;;;24.56;52.00;98146.38;5030242;28;20190;-85
2023/07/27 07:05:12;;;;;;;5.40;3.40;;;;;;;24.33;52.28;98143.06;5032955;28;20182;-86
2023/07/27 07:07:38;;;;;;;8.00;3.03;;;;;;;24.13;53.22;98134.84;5033240;28;20624;-86
2023/07/27 07:10:05;;;;;;;4.40;3.00;;;;;;;24.21;52.92;98139.25;5015832;28;20186;-86
2023/07/27 07:12:30;;;;;;;5.47;3.30;;;;;;;24.10;53.60;98137.91;5033103;28;20186;-85
2023/07/27 07:14:56;;;;;;;5.40;3.43;;;;;;;24.44;52.14;98145.25;5032778;28;20186;-86
2023/07/27 07:17:21;;;;;;;8.00;3.77;;;;;;;24.54;51.86;98152.94;5015690;28;20528;-86
2023/07/27 07:19:47;;;;;;;6.03;3.13;;;;;;;24.18;53.15;98158.38;5033078;28;20698;-85
2023/07/27 07:22:12;;;;;;;4.87;2.77;;;;;;;24.43;51.50;98171.19;5032907;28;20178;-86
2023/07/27 07:24:39;;;;;;;5.00;2.63;;;;;;;24.49;51.29;98191.03;5033040;28;20566;-87
2023/07/27 07:27:04;;;;;;;4.20;2.57;;;;;;;24.62;50.91;98198.38;5032815;28;20668;-84
2023/07/27 07:29:30;;;;;;;5.37;2.80;;;;;;;24.65;51.18;98204.19;5033320;28;20188;-86
2023/07/27 07:31:55;;;;;;;5.37;2.70;;;;;;;24.79;52.40;98216.69;5019765;28;20214;-85
2023/07/27 07:34:21;;;;;;;8.13;3.10;;;;;;;24.92;53.56;98224.84;5037066;28;20174;-85
2023/07/27 07:36:46;;;;;;;6.43;2.47;;;;;;;24.25;55.02;98227.06;5036856;28;20725;-83
2023/07/27 07:39:11;;;;;;;5.57;3.20;;;;;;;24.58;56.39;98234.63;5036805;28;20265;-83
2023/07/27 07:41:37;;;;;;;9.77;3.63;;;;;;;24.78;58.60;98220.41;5019456;28;20185;-83
2023/07/27 07:44:02;;;;;;;8.27;3.80;;;;;;;25.11;58.19;98204.59;5037073;28;20181;-84
2023/07/27 07:46:28;;;;;;;9.50;3.27;;;;;;;25.09;58.46;98187.03;5036935;28;20598;-84
2023/07/27 07:48:53;;;;;;;8.13;2.90;;;;;;;25.09;55.43;98169.09;5019181;28;20540;-85
2023/07/27 07:51:18;;;;;;;6.73;2.87;;;;;;;25.02;58.06;98163.72;5036676;28;20264;-84
2023/07/27 07:53:44;;;;;;;7.07;3.00;;;;;;;25.02;59.27;98174.44;5036839;28;20214;-84
2023/07/27 07:56:14;;;;;;;4.13;2.47;;;;;;;25.08;58.83;98175.47;5036781;28;20270;-85
2023/07/27 07:58:40;;;;;;;4.47;1.70;;;;;;;25.49;57.60;98175.59;5036493;28;20628;-85
2023/07/27 08:01:06;;;;;;;3.17;1.87;;;;;;;25.52;53.76;98176.00;5036322;28;20240;-84
2023/07/27 08:03:32;;;;;;;6.40;1.97;;;;;;;25.85;53.73;98165.44;5036543;28;20201;-84
2023/07/27 08:05:57;;;;;;;4.20;2.23;;;;;;;26.07;52.19;98164.25;5036543;28;20171;-85
2023/07/27 08:08:23;;;;;;;3.60;1.43;;;;;;;26.22;53.00;98167.66;5036491;28;20257;-85
2023/07/27 08:10:48;;;;;;;5.03;1.43;;;;;;;26.21;48.36;98174.03;5036416;28;20300;-86
2023/07/27 08:13:14;;;;;;;4.60;1.40;;;;;;;26.43;48.17;98179.25;5036210;28;20635;-86
2023/07/27 08:15:39;;;;;;;5.07;1.90;;;;;;;26.10;46.67;98179.97;5036250;28;20194;-85
2023/07/27 08:18:05;;;;;;;3.90;1.50;;;;;;;26.06;49.18;98178.72;5036432;28;20253;-85
2023/07/27 08:20:30;;;;;;;4.83;1.47;;;;;;;26.37;45.73;98172.00;5018839;28;20217;-85
2023/07/27 08:22:58;;;;;;;4.27;1.30;;;;;;;26.16;44.48;98157.72;5018573;28;20185;-86
2023/07/27 08:25:23;;;;;;;3.63;1.33;;;;;;;26.08;45.48;98175.81;5018647;28;20706;-85
2023/07/27 08:27:50;;;;;;;3.47;1.40;;;;;;;25.94;45.75;98185.69;5036052;28;20178;-85
2023/07/27 08:30:15;;;;;;;2.20;1.17;;;;;;;25.96;45.94;98186.34;5036097;28;20178;-85
2023/07/27 08:32:41;;;;;;;2.13;1.10;;;;;;;26.06;43.82;98177.91;5018614;28;20244;-85
2023/07/27 08:35:09;;;;;;;5.23;1.60;;;;;;;26.18;42.40;98174.44;5035764;28;20178;-86
2023/07/27 08:37:35;;;;;;;3.83;1.27;;;;;;;26.17;43.65;98167.44;5035809;28;20244;-85
2023/07/27 08:40:27;;;;;;;3.40;1.17;;;;;;;25.98;44.72;98161.97;5036068;28;20187;-85
2023/07/27 08:43:03;;;;;;;2.20;1.10;;;;;;;25.90;42.55;98173.72;5017499;28;20177;-84
2023/07/27 08:45:29;;;;;;;3.07;1.40;;;;;;;25.97;42.50;98189.84;5018085;28;20639;-85
2023/07/27 08:47:55;;;;;;;2.60;1.13;;;;;;;26.13;41.83;98194.88;5035785;28;20261;-86
2023/07/27 08:50:22;;;;;;;4.13;1.40;;;;;;;26.07;42.84;98204.53;5035664;28;20269;-85
2023/07/27 08:52:47;;;;;;;4.33;1.67;;;;;;;25.76;42.38;98227.56;5035708;28;20608;-85
2023/07/27 08:55:12;;;;;;;2.27;1.27;;;;;;;25.74;41.26;98238.47;5017965;28;20186;-85
2023/07/27 08:57:38;;;;;;;2.20;1.07;;;;;;;25.64;41.27;98230.78;5035557;28;20186;-85
2023/07/27 09:00:04;;;;;;;1.43;0.80;;;;;;;25.55;40.47;98233.84;5034286;28;20595;-86
2023/07/27 09:02:29;;;;;;;4.83;0.93;;;;;;;25.29;40.43;98239.00;5018097;28;20182;-87
2023/07/27 09:04:55;;;;;;;3.40;0.97;;;;;;;25.01;41.04;98247.00;5035453;28;20231;-86
2023/07/27 09:07:21;;;;;;;2.00;1.13;;;;;;;25.22;40.63;98248.81;5001778;28;20613;-87
2023/07/27 09:09:51;;;;;;;4.23;1.40;;;;;;;25.05;40.60;98253.66;5017901;28;20212;-87
2023/07/27 09:12:18;;;;;;;11.27;1.57;;;;;;;25.18;41.02;98256.44;5035407;28;20178;-86
2023/07/27 09:14:43;;;;;;;6.60;1.20;;;;;;;25.37;40.89;98249.56;5035616;28;20178;-87
2023/07/27 09:17:09;;;;;;;4.93;1.30;;;;;;;25.56;39.86;98235.47;5035268;28;20550;-86
2023/07/27 09:19:42;;;;;;;2.50;1.33;;;;;;;25.59;39.57;98235.09;5035178;28;20174;-86
2023/07/27 09:22:08;;;;;;;1.97;0.80;;;;;;;25.78;39.02;98237.06;5017770;28;20182;-87
2023/07/27 09:24:35;;;;;;;2.27;1.10;;;;;;;25.68;38.09;98244.66;5035240;28;20178;-87
2023/07/27 09:27:08;;;;;;;5.50;0.90;;;;;;;25.89;38.11;98233.78;5034925;28;20269;-87
2023/07/27 09:29:33;;;;;;;2.83;1.10;;;;;;;25.95;38.60;98235.69;5035039;28;20159;-87
2023/07/27 09:31:59;;;;;;;2.17;1.03;;;;;;;26.00;38.66;98249.34;5035017;28;20170;-87
2023/07/27 09:34:30;;;;;;;4.70;1.40;;;;;;;25.97;39.02;98251.63;5017856;28;20280;-87
2023/07/27 09:36:56;;;;;;;5.63;1.00;;;;;;;26.13;37.63;98264.72;5035131;28;20194;-87
2023/07/27 09:39:26;;;;;;;2.20;1.03;;;;;;;26.00;39.12;98264.63;5035115;28;20180;-87
2023/07/27 09:41:52;;;;;;;2.93;1.20;;;;;;;26.10;37.36;98260.53;5035445;28;20165;-87
2023/07/27 09:44:19;;;;;;;2.60;0.90;;;;;;;25.90;37.54;98265.00;5035092;28;20178;-87
2023/07/27 09:46:45;;;;;;;2.60;1.03;;;;;;;25.90;38.21;98265.00;5034869;28;20182;-86
2023/07/27 09:49:15;;;;;;;2.00;1.03;;;;;;;25.95;36.80;98269.78;5034729;28;20243;-87
2023/07/27 09:51:41;;;;;;;1.73;1.03;;;;;;;25.60;36.26;98268.97;5017379;28;20187;-88
2023/07/27 09:54:07;;;;;;;3.03;1.00;;;;;;;25.59;36.17;98269.97;5034478;28;20240;-89
2023/07/27 09:56:33;;;;;;;2.50;1.10;;;;;;;25.44;36.35;98279.97;5034527;28;20336;-87
2023/07/27 09:58:59;;;;;;;2.77;0.70;;;;;;;25.02;35.92;98273.66;5033768;28;20186;-86
2023/07/27 10:01:26;;;;;;;3.17;1.07;;;;;;;24.87;37.02;98288.13;5033973;28;20186;-88
2023/07/27 10:03:57;;;;;;;3.03;0.97;;;;;;;24.75;36.45;98290.47;5033458;28;20201;-87
2023/07/27 10:06:24;;;;;;;2.33;1.00;;;;;;;25.13;36.34;98293.72;5033334;28;20178;-87
2023/07/27 10:08:50;;;;;;;2.63;1.27;;;;;;;25.07;35.89;98310.59;5033500;28;20177;-88
2023/07/27 10:11:15;;;;;;;2.77;0.57;;;;;;;24.59;37.92;98333.56;5033520;28;20178;-88
2023/07/27 10:13:44;;;;;;;4.20;0.50;;;;;;;24.41;38.71;98346.53;5015619;28;20202;-87
2023/07/27 10:16:17;;;;;;;2.50;0.87;;;;;;;24.21;39.48;98348.13;5033789;28;20213;-87
2023/07/27 10:18:46;;;;;;;3.90;0.90;;;;;;;23.93;42.46;98347.91;5034520;28;20177;-87
2023/07/27 10:21:21;;;;;;;4.90;1.27;;;;;;;23.74;43.89;98335.09;5034148;28;20178;-86
2023/07/27 10:23:52;;;;;;;4.53;1.00;;;;;;;23.94;44.26;98324.66;5016589;28;20181;-85
2023/07/27 10:26:18;;;;;;;0.90;0.60;;;;;;;23.96;43.55;98325.28;5034631;28;20171;-86
2023/07/27 10:28:49;;;;;;;3.17;1.20;;;;;;;23.74;45.00;98343.13;5034063;28;20179;-85
2023/07/27 10:31:19;;;;;;;2.10;1.00;;;;;;;23.41;48.12;98347.09;5034279;28;20527;-85
2023/07/27 10:34:02;;;;;;;5.27;1.23;;;;;;;23.30;50.04;98367.03;5033720;28;20269;-84
2023/07/27 10:36:59;;;;;;;5.97;1.17;;;;;;;23.30;50.51;98361.69;5034179;28;20647;-84
2023/07/27 10:39:47;;;;;;;2.63;1.07;;;;;;;23.53;49.67;98341.13;5033905;28;20170;-85
2023/07/27 10:42:15;;;;;;;5.73;1.53;;;;;;;23.73;48.98;98312.84;5033783;28;20660;-85
2023/07/27 10:44:50;;;;;;;3.60;1.23;;;;;;;23.79;48.48;98266.59;5033783;28;20190;-86
2023/07/27 10:47:26;;;;;;;4.63;1.20;;;;;;;23.67;48.27;98189.66;5034063;28;20661;-85
2023/07/27 10:49:57;;;;;;;1.70;1.10;;;;;;;23.24;48.89;98207.34;5033996;28;20159;-85
2023/07/27 10:52:33;;;;;;;1.97;1.13;;;;;;;23.07;50.85;98237.91;5033886;28;20185;-84
2023/07/27 10:55:00;;;;;;;2.43;1.10;;;;;;;22.81;52.88;98258.84;5034156;28;20177;-84
2023/07/27 10:57:27;;;;;;;3.03;1.23;;;;;;;22.79;53.41;98266.22;5033501;28;20656;-85
2023/07/27 10:59:53;;;;;;;2.13;1.10;;;;;;;23.00;52.64;98277.91;5015858;28;20213;-85
2023/07/27 11:02:24;;;;;;;2.30;1.10;;;;;;;23.17;55.51;98294.63;5033324;28;20174;-85
2023/07/27 11:04:55;;;;;;;2.23;1.20;;;;;;;23.36;56.89;98299.47;5033343;28;20681;-85
2023/07/27 11:07:32;;;;;;;2.03;1.00;;;;;;;23.71;55.52;98289.97;5033435;28;20155;-85
2023/07/27 11:09:59;;;;;;;2.27;1.37;;;;;;;23.87;55.33;98284.44;5016033;28;20172;-85
2023/07/27 11:12:25;;;;;;;2.80;1.30;;;;;;;24.41;52.74;98276.88;5033643;28;20175;-85
2023/07/27 11:14:52;;;;;;;2.33;1.07;;;;;;;24.57;51.83;98259.75;5015851;28;20197;-86
2023/07/27 11:17:19;;;;;;;1.90;0.93;;;;;;;24.94;50.10;98252.34;5033240;28;20213;-85
2023/07/27 11:19:45;;;;;;;3.17;1.20;;;;;;;25.27;50.34;98239.19;5015824;28;20178;-86
2023/07/27 11:22:11;;;;;;;2.57;0.90;;;;;;;25.88;46.29;98248.28;5033513;28;20624;-86
2023/07/27 11:24:36;;;;;;;1.03;0.50;;;;;;;26.39;44.09;98237.16;5033396;28;20217;-86
2023/07/27 11:27:02;;;;;;;2.67;1.07;;;;;;;26.77;45.75;98246.34;5015772;28;20174;-86
2023/07/27 11:29:28;;;;;;;1.77;0.90;;;;;;;27.36;45.54;98247.19;5033374;28;20209;-86
2023/07/27 11:31:58;;;;;;;3.87;1.03;;;;;;;27.47;41.30;98236.84;5015811;28;20174;-87
2023/07/27 11:34:28;;;;;;;1.87;0.73;;;;;;;27.54;38.78;98232.31;5033171;28;20189;-87
2023/07/27 11:36:57;;;;;;;1.20;0.60;;;;;;;27.79;39.55;98231.41;5033060;28;20271;-87
2023/07/27 11:39:23;;;;;;;1.15;0.63;;;;;;;27.82;37.44;98225.59;5033067;28;20182;-87
2023/07/27 11:41:50;;;;;;;6.38;0.75;;;;;;;28.07;37.52;98220.34;5033399;28;20178;-87
2023/07/27 11:44:18;;;;;;;1.67;0.57;;;;;;;28.60;36.22;98208.25;5032975;28;20193;-87